This demonstration page uses our WeatherBlox Daily Observations layout. Learn more.

41.55636, -103.73856

Hourly Observations for December 12, 2019

Temp ( °F °C ) Dew Point ( °F °C ) Humidity (%) Winds ( mph kmh ) Pressure ( in mb ) Visibility ( mi km ) Precip ( " mm )
12:58 am 00:58 Clear 36 2.3 23 -5.2 58 58 WNW 25 41 30 1016 10 16.09344 N/A
1:58 am 01:58 Clear 37 2.5 22 -5.3 57 57 WNW 26 43 30 1016 10 16.09344 N/A
2:58 am 02:58 Mostly Cloudy 36 2.1 23 -5.2 59 59 NW 17 28 30.03 1017 10 16.09344 N/A
3:58 am 03:58 Mostly Cloudy 37 2.6 23 -4.8 59 59 NW 17 28 30.03 1017 10 16.09344 N/A
4:58 am 04:58 Partly Cloudy 35 1.6 24 -4.7 63 63 NW 9 15 30.03 1017 10 16.09344 N/A
5:58 am 05:58 Mostly Cloudy 37 2.5 24 -4.4 61 61 WNW 13 20 30 1016 10 16.09344 N/A
6:58 am 06:58 Mostly Cloudy 39 3.8 23 -5 53 53 NW 17 28 30 1016 10 16.09344 N/A
7:58 am 07:58 Mostly Cloudy 36 2.3 24 -4.4 62 62 W 13 20 30 1016 10 16.09344 N/A
8:58 am 08:58 Mostly Cloudy 39 4 23 -4.8 53 53 W 18 30 30 1016 10 16.09344 N/A
9:58 am 09:58 Sunny 41 4.9 23 -4.8 50 50 W 17 28 30 1016 10 16.09344 N/A
10:58 am 10:58 Sunny 43 5.9 23 -4.8 47 47 W 25 41 29.97 1015 10 16.09344 N/A
11:58 am 11:58 Sunny 45 7.1 26 -3.6 47 47 WSW 14 22 29.94 1014 10 16.09344 N/A
12:58 pm 12:58 Sunny 41 4.8 24 -4.2 53 53 SW 13 20 29.91 1013 10 16.09344 N/A
1:58 pm 13:58 Sunny 43 6.3 26 -3.6 50 50 WSW 14 22 29.91 1013 10 16.09344 N/A
2:58 pm 14:58 Sunny 45 7.4 27 -3 48 48 WNW 20 31 29.91 1013 10 16.09344 N/A
3:58 pm 15:58 Sunny 43 6.3 26 -3.2 51 51 WNW 17 28 29.91 1013 10 16.09344 N/A
4:58 pm 16:58 Partly Cloudy 41 5 27 -2.9 57 57 WNW 21 33 29.94 1014 10 16.09344 N/A
5:58 pm 17:58 Mostly Cloudy 40 4.5 28 -2.4 61 61 WNW 15 24 29.91 1013 10 16.09344 N/A
6:58 pm 18:58 Mostly Cloudy 40 4.6 28 -2.2 62 62 WNW 18 30 29.91 1013 10 16.09344 N/A
7:58 pm 19:58 Mostly Cloudy 39 3.8 30 -1.3 70 70 W 24 39 29.91 1013 10 16.09344 N/A
8:58 pm 20:58 Mostly Clear 37 2.8 29 -1.4 74 74 W 20 31 29.88 1012 10 16.09344 N/A
9:58 pm 21:58 Mostly Cloudy 37 2.5 29 -1.7 74 74 WNW 16 26 29.88 1012 10 16.09344 N/A
10:58 pm 22:58 Mostly Clear 34 1.2 28 -2.4 77 77 WNW 15 24 29.91 1013 10 16.09344 N/A
11:58 pm 23:58 Mostly Cloudy 35 1.5 28 -2.3 76 76 WNW 14 22 29.91 1013 10 16.09344 N/A

Powered by AerisWeather